Time;durP1;ratioP1;P1;durP2;ratioP2;P2;SDS_P1;SDS_P2;PMS_P1;PMS_P2;Temp;Humidity;BMP_temperature;BMP_pressure;BME280_temperature;BME280_humidity;BME280_pressure;Samples;Min_cycle;Max_cycle;Signal;HPM_P1;HPM_P2
2022/08/31 00:04:04;;;;;;;2.58;1.30;;;18.30;67.60;;;;;;4996855;28;20140;-46
2022/08/31 00:06:31;;;;;;;3.92;1.65;;;18.30;67.80;;;;;;4996472;28;20030;-47
2022/08/31 00:08:57;;;;;;;3.95;1.63;;;18.30;68.00;;;;;;4996436;28;20057;-46
2022/08/31 00:11:28;;;;;;;1.90;1.38;;;18.30;68.00;;;;;;4994894;28;20037;-46
2022/08/31 00:14:00;;;;;;;1.20;1.05;;;18.30;68.10;;;;;;4994924;28;20479;-47
2022/08/31 00:16:28;;;;;;;0.80;0.80;;;18.20;68.30;;;;;;4996427;28;20400;-46
2022/08/31 00:18:53;;;;;;;1.70;1.10;;;18.20;68.40;;;;;;4996438;28;20048;-46
2022/08/31 00:21:21;;;;;;;1.23;1.08;;;18.20;68.50;;;;;;4996078;28;20054;-46
2022/08/31 00:23:48;;;;;;;2.60;1.33;;;18.20;68.60;;;;;;4995980;28;20062;-46
2022/08/31 00:26:15;;;;;;;2.63;1.00;;;18.20;68.70;;;;;;4994716;28;20022;-46
2022/08/31 00:28:41;;;;;;;0.70;0.70;;;18.20;68.70;;;;;;4995984;28;20030;-47
2022/08/31 00:31:07;;;;;;;1.27;1.15;;;18.20;68.90;;;;;;4994514;28;20084;-46
2022/08/31 00:33:34;;;;;;;3.22;1.25;;;18.10;68.90;;;;;;4995991;28;20363;-47
2022/08/31 00:36:00;;;;;;;3.42;1.23;;;18.10;69.10;;;;;;4995627;28;20022;-48
2022/08/31 00:38:26;;;;;;;1.20;1.05;;;18.10;69.10;;;;;;4995523;28;20074;-46
2022/08/31 00:40:52;;;;;;;1.48;1.38;;;18.10;69.40;;;;;;4995420;28;20053;-46
2022/08/31 00:43:47;;;;;;;1.65;1.20;;;18.00;69.50;;;;;;4995594;28;20026;-46
2022/08/31 00:46:18;;;;;;;1.23;1.10;;;18.00;69.70;;;;;;4995924;28;20022;-46
2022/08/31 00:48:58;;;;;;;1.40;1.20;;;17.90;69.90;;;;;;4996015;28;20023;-47
2022/08/31 00:51:27;;;;;;;1.45;1.13;;;17.90;70.10;;;;;;5002398;28;20390;-46
2022/08/31 00:53:53;;;;;;;1.75;1.65;;;17.80;70.20;;;;;;4997531;28;20037;-47
2022/08/31 00:56:20;;;;;;;0.93;0.93;;;17.80;70.40;;;;;;4995438;28;20027;-47
2022/08/31 00:58:46;;;;;;;0.95;0.95;;;17.80;70.60;;;;;;4995842;28;20379;-46
2022/08/31 01:01:13;;;;;;;1.33;0.90;;;17.80;70.60;;;;;;4995640;28;20026;-47
2022/08/31 01:03:40;;;;;;;0.85;0.85;;;17.70;70.80;;;;;;4995438;28;20109;-47
2022/08/31 01:06:07;;;;;;;2.08;1.10;;;17.80;70.80;;;;;;4995746;28;20057;-47
2022/08/31 01:08:32;;;;;;;1.85;1.10;;;17.80;70.80;;;;;;4994937;28;20034;-46
2022/08/31 01:10:59;;;;;;;2.08;1.10;;;17.70;71.00;;;;;;4995603;28;20041;-47
2022/08/31 01:13:25;;;;;;;3.70;1.20;;;17.70;71.10;;;;;;4994799;28;20057;-46
2022/08/31 01:15:57;;;;;;;1.88;1.27;;;17.70;71.20;;;;;;4994783;28;20038;-47
2022/08/31 01:18:23;;;;;;;3.50;1.02;;;17.70;71.30;;;;;;4995128;28;20022;-46
2022/08/31 01:21:15;;;;;;;2.97;0.90;;;17.60;71.40;;;;;;4994829;28;20029;-46
2022/08/31 01:23:43;;;;;;;0.57;0.57;;;17.60;71.40;;;;;;4994667;28;20066;-46
2022/08/31 01:26:13;;;;;;;1.42;1.15;;;17.60;71.40;;;;;;4994558;28;20080;-45
2022/08/31 01:28:39;;;;;;;1.58;1.40;;;17.50;71.50;;;;;;4993218;28;20042;-45
2022/08/31 01:31:17;;;;;;;1.45;1.05;;;17.50;71.70;;;;;;4994616;28;20030;-46
2022/08/31 01:33:43;;;;;;;2.28;1.38;;;17.50;71.60;;;;;;4994559;28;20092;-46
2022/08/31 01:36:10;;;;;;;2.38;1.08;;;17.50;71.80;;;;;;4994612;28;20063;-46
2022/08/31 01:38:36;;;;;;;4.72;1.13;;;17.50;71.80;;;;;;4994607;28;20029;-47
2022/08/31 01:41:02;;;;;;;1.20;1.05;;;17.40;71.90;;;;;;4994458;28;20137;-46
2022/08/31 01:43:32;;;;;;;1.17;1.08;;;17.40;71.80;;;;;;4994996;28;20030;-46
2022/08/31 01:45:59;;;;;;;4.38;1.17;;;17.40;71.90;;;;;;4994868;28;20057;-45
2022/08/31 01:48:25;;;;;;;1.60;1.10;;;17.30;72.00;;;;;;4994353;28;20475;-46
2022/08/31 01:50:50;;;;;;;1.80;1.25;;;17.30;72.00;;;;;;4994500;28;20042;-47
2022/08/31 01:53:16;;;;;;;5.93;1.13;;;17.30;72.10;;;;;;4994484;28;20191;-48
2022/08/31 01:55:42;;;;;;;3.45;0.70;;;17.30;72.20;;;;;;4994424;28;20026;-46
2022/08/31 01:58:08;;;;;;;1.13;1.00;;;17.30;72.20;;;;;;4994399;28;20033;-47
2022/08/31 02:00:34;;;;;;;2.95;1.23;;;17.30;72.30;;;;;;4994556;28;20061;-46
2022/08/31 02:03:02;;;;;;;1.05;0.95;;;17.30;72.30;;;;;;4994005;28;20025;-45
2022/08/31 02:05:28;;;;;;;1.40;1.10;;;17.20;72.40;;;;;;4994871;28;20478;-46
2022/08/31 02:07:55;;;;;;;0.93;0.70;;;17.30;72.30;;;;;;4994222;28;20026;-47
2022/08/31 02:10:20;;;;;;;0.95;0.85;;;17.20;72.30;;;;;;4994452;28;20428;-46
2022/08/31 02:12:46;;;;;;;1.10;1.00;;;17.20;72.30;;;;;;4993845;28;20018;-46
2022/08/31 02:15:12;;;;;;;3.03;1.23;;;17.20;72.40;;;;;;4994327;28;20035;-47
2022/08/31 02:17:38;;;;;;;2.92;1.13;;;17.10;72.40;;;;;;4994199;28;20026;-46
2022/08/31 02:20:06;;;;;;;1.60;0.90;;;17.10;72.40;;;;;;4993549;28;20026;-46
2022/08/31 02:22:32;;;;;;;2.30;0.98;;;17.10;72.40;;;;;;4993509;28;20019;-45
2022/08/31 02:24:57;;;;;;;2.03;1.58;;;17.20;72.30;;;;;;4993609;28;20022;-46
2022/08/31 02:27:23;;;;;;;1.77;1.17;;;17.10;72.20;;;;;;4993575;28;20081;-45
2022/08/31 02:29:49;;;;;;;1.30;0.82;;;17.10;72.10;;;;;;4993598;28;20046;-44
2022/08/31 02:32:15;;;;;;;1.52;1.10;;;17.10;72.00;;;;;;4994260;28;20062;-45
2022/08/31 02:34:40;;;;;;;1.20;0.80;;;17.10;71.90;;;;;;4993635;28;20030;-48
2022/08/31 02:37:06;;;;;;;1.63;1.20;;;17.20;71.70;;;;;;4993694;28;20026;-47
2022/08/31 02:39:32;;;;;;;6.40;1.30;;;17.20;71.50;;;;;;4991735;28;20051;-46
2022/08/31 02:41:58;;;;;;;1.23;0.98;;;17.20;71.30;;;;;;4993569;28;20517;-46
2022/08/31 02:44:24;;;;;;;0.90;0.90;;;17.10;71.10;;;;;;4993374;28;20045;-51
2022/08/31 02:46:50;;;;;;;1.85;1.10;;;17.10;71.10;;;;;;4993852;28;20032;-45
2022/08/31 02:49:16;;;;;;;2.03;1.35;;;17.10;71.10;;;;;;4993718;28;20026;-46
2022/08/31 02:51:42;;;;;;;1.27;1.17;;;17.10;71.10;;;;;;4993401;28;20022;-45
2022/08/31 02:54:09;;;;;;;2.00;0.98;;;17.10;70.90;;;;;;4993811;28;20046;-46
2022/08/31 02:56:34;;;;;;;4.10;1.35;;;17.00;71.00;;;;;;4992858;28;20415;-45
2022/08/31 02:59:00;;;;;;;2.28;1.27;;;17.00;71.10;;;;;;4993572;28;20022;-45
2022/08/31 03:01:26;;;;;;;1.20;1.10;;;16.90;71.00;;;;;;4994651;28;20038;-46
2022/08/31 03:03:52;;;;;;;3.17;1.10;;;17.00;71.10;;;;;;4997774;28;20515;-46
2022/08/31 03:06:19;;;;;;;1.70;1.10;;;17.00;70.90;;;;;;4997375;28;20026;-46
2022/08/31 03:08:45;;;;;;;2.50;1.60;;;17.00;70.60;;;;;;4998582;28;20378;-47
2022/08/31 03:11:11;;;;;;;1.42;1.10;;;16.90;70.60;;;;;;4999776;28;20101;-46
2022/08/31 03:13:38;;;;;;;2.63;1.10;;;16.90;70.60;;;;;;4999387;28;20414;-47
2022/08/31 03:16:04;;;;;;;2.20;1.33;;;16.80;70.70;;;;;;4997430;28;20035;-45
2022/08/31 03:18:30;;;;;;;2.05;1.10;;;16.80;70.80;;;;;;4997706;28;20092;-49
2022/08/31 03:20:56;;;;;;;1.25;1.02;;;16.80;70.80;;;;;;4997833;28;20049;-45
2022/08/31 03:23:22;;;;;;;3.60;1.67;;;16.80;70.80;;;;;;4998213;28;20112;-46
2022/08/31 03:25:47;;;;;;;1.65;1.30;;;16.80;70.90;;;;;;4998172;28;20094;-45
2022/08/31 03:28:13;;;;;;;0.77;0.77;;;16.80;71.00;;;;;;4998288;28;20533;-45
2022/08/31 03:30:39;;;;;;;0.93;0.88;;;16.70;70.70;;;;;;4998351;28;20379;-46
2022/08/31 03:33:05;;;;;;;1.05;0.90;;;16.70;70.80;;;;;;4997319;28;20030;-45
2022/08/31 03:35:31;;;;;;;4.03;1.00;;;16.70;70.70;;;;;;4997637;28;20550;-50
2022/08/31 03:37:57;;;;;;;2.80;1.50;;;16.70;70.60;;;;;;4997220;28;20034;-46
2022/08/31 03:40:23;;;;;;;1.40;0.95;;;16.70;70.60;;;;;;4996838;28;20125;-45
2022/08/31 03:42:49;;;;;;;3.38;0.98;;;16.70;70.60;;;;;;4995379;28;20534;-47
2022/08/31 03:45:15;;;;;;;1.40;1.30;;;16.60;70.30;;;;;;4997343;28;20092;-45
2022/08/31 03:47:40;;;;;;;2.13;1.90;;;16.60;70.20;;;;;;4995466;28;20077;-46
2022/08/31 03:50:09;;;;;;;1.00;0.90;;;16.50;70.30;;;;;;4996937;28;20034;-45
2022/08/31 03:52:35;;;;;;;2.53;2.03;;;16.50;70.20;;;;;;4996946;28;20038;-46
2022/08/31 03:55:03;;;;;;;3.25;0.85;;;16.50;70.20;;;;;;4996435;28;20022;-46
2022/08/31 03:57:29;;;;;;;2.38;1.40;;;16.50;70.00;;;;;;4996392;28;20050;-46
2022/08/31 03:59:56;;;;;;;1.25;1.05;;;16.50;70.00;;;;;;4996604;28;20065;-46
2022/08/31 04:02:23;;;;;;;0.60;0.60;;;16.50;69.90;;;;;;4996663;28;20050;-46
2022/08/31 04:04:50;;;;;;;1.15;0.93;;;16.50;69.60;;;;;;4996467;28;20026;-46
2022/08/31 04:07:17;;;;;;;4.25;1.42;;;16.50;69.60;;;;;;4997184;28;20026;-47
2022/08/31 04:09:43;;;;;;;1.30;1.10;;;16.50;69.30;;;;;;4996318;28;20030;-47
2022/08/31 04:12:09;;;;;;;2.45;1.35;;;16.40;69.50;;;;;;4996077;28;20037;-47
2022/08/31 04:14:35;;;;;;;1.80;0.88;;;16.40;69.60;;;;;;4996142;28;20022;-46
2022/08/31 04:17:01;;;;;;;2.83;1.40;;;16.40;69.40;;;;;;4996532;28;20116;-46
2022/08/31 04:19:26;;;;;;;1.58;1.02;;;16.40;69.20;;;;;;4996152;28;20313;-47
2022/08/31 04:21:52;;;;;;;1.73;1.00;;;16.30;69.50;;;;;;4996113;28;20030;-47
2022/08/31 04:24:18;;;;;;;6.00;1.15;;;16.30;69.50;;;;;;4996425;28;20117;-46
2022/08/31 04:26:43;;;;;;;0.88;0.85;;;16.30;69.70;;;;;;4995932;28;20057;-47
2022/08/31 04:29:09;;;;;;;1.23;1.10;;;16.30;69.60;;;;;;4996144;28;20026;-45
2022/08/31 04:31:36;;;;;;;1.27;0.63;;;16.30;69.40;;;;;;4995838;28;20022;-45
2022/08/31 18:47:00;;;;;;;2.58;1.02;;;21.20;48.30;;;;;;5090653;28;20114;-47
2022/08/31 18:49:32;;;;;;;1.90;1.60;;;21.10;48.20;;;;;;5090472;28;20028;-47
2022/08/31 18:52:01;;;;;;;2.15;1.63;;;21.10;48.40;;;;;;5088986;28;20052;-48
2022/08/31 18:54:27;;;;;;;1.10;0.95;;;21.00;48.50;;;;;;5088870;28;20111;-46
2022/08/31 18:56:53;;;;;;;3.33;1.35;;;21.00;48.60;;;;;;5089982;28;20024;-48
2022/08/31 18:59:19;;;;;;;1.63;1.25;;;20.90;48.50;;;;;;5089896;28;20040;-46
2022/08/31 19:01:45;;;;;;;3.88;1.40;;;20.90;48.50;;;;;;5088861;28;20056;-47
2022/08/31 19:04:12;;;;;;;1.50;1.13;;;20.80;48.50;;;;;;5090417;28;20024;-48
2022/08/31 19:06:40;;;;;;;2.35;0.90;;;20.80;48.60;;;;;;5089449;28;20020;-48
2022/08/31 19:09:08;;;;;;;3.13;1.73;;;20.80;48.70;;;;;;5089021;28;20039;-50
2022/08/31 19:11:47;;;;;;;3.05;1.30;;;20.70;48.70;;;;;;5090136;28;20107;-51
2022/08/31 19:14:13;;;;;;;3.00;0.95;;;20.70;48.80;;;;;;5090077;28;20060;-48
2022/08/31 19:16:41;;;;;;;1.77;1.23;;;20.60;48.70;;;;;;5090080;28;20059;-48
2022/08/31 19:19:07;;;;;;;6.00;1.20;;;20.60;48.70;;;;;;5089737;28;20041;-47
2022/08/31 19:21:34;;;;;;;4.65;1.45;;;20.50;48.60;;;;;;5089730;28;20042;-49
2022/08/31 19:24:01;;;;;;;1.88;1.30;;;20.50;48.50;;;;;;5089666;28;20111;-50
2022/08/31 19:26:37;;;;;;;3.40;1.08;;;20.50;48.60;;;;;;5089614;28;20021;-48
2022/08/31 19:29:07;;;;;;;3.92;1.45;;;20.50;48.70;;;;;;5088701;28;20031;-46
2022/08/31 19:31:35;;;;;;;2.25;1.40;;;20.40;48.70;;;;;;5089804;28;20012;-47
2022/08/31 19:34:02;;;;;;;2.25;1.15;;;20.40;48.70;;;;;;5089712;28;20032;-46
2022/08/31 19:36:35;;;;;;;5.63;1.45;;;20.40;48.60;;;;;;5090015;28;20024;-47
2022/08/31 19:39:06;;;;;;;3.90;1.50;;;20.40;48.60;;;;;;5090725;28;20024;-47
2022/08/31 19:41:33;;;;;;;1.10;0.77;;;20.40;48.50;;;;;;5089785;28;20052;-47
2022/08/31 19:44:01;;;;;;;1.73;1.20;;;20.30;48.40;;;;;;5088686;28;20032;-47
2022/08/31 19:46:28;;;;;;;1.30;0.88;;;20.40;48.40;;;;;;5089600;28;20503;-47
2022/08/31 19:48:58;;;;;;;3.80;1.00;;;20.30;48.30;;;;;;5089558;28;20074;-46
2022/08/31 19:51:26;;;;;;;1.75;1.30;;;20.30;48.30;;;;;;5084052;28;20024;-50
2022/08/31 19:53:52;;;;;;;1.77;1.00;;;20.30;48.30;;;;;;5075764;28;20032;-48
2022/08/31 19:56:22;;;;;;;1.90;0.95;;;20.30;48.10;;;;;;5076078;28;20090;-47
2022/08/31 19:58:50;;;;;;;1.77;1.00;;;20.30;48.10;;;;;;5076055;28;20537;-48
2022/08/31 20:01:24;;;;;;;6.88;1.13;;;20.40;47.90;;;;;;5074378;28;20502;-48
2022/08/31 20:03:56;;;;;;;1.52;1.10;;;20.30;47.90;;;;;;5075871;28;20016;-48
2022/08/31 20:06:24;;;;;;;0.98;0.90;;;20.30;47.80;;;;;;5075947;28;20035;-48
2022/08/31 20:08:51;;;;;;;4.72;1.13;;;20.30;47.80;;;;;;5075640;28;20469;-47
2022/08/31 20:11:21;;;;;;;3.50;0.95;;;20.30;47.80;;;;;;5074397;28;20025;-48
2022/08/31 20:13:47;;;;;;;4.20;1.10;;;20.30;47.80;;;;;;5074982;28;20503;-47
2022/08/31 20:16:13;;;;;;;2.63;1.35;;;20.30;47.80;;;;;;5075198;28;20115;-47
2022/08/31 20:18:45;;;;;;;2.65;1.67;;;20.30;47.50;;;;;;5075419;28;20556;-48
2022/08/31 20:21:18;;;;;;;2.05;1.17;;;20.30;47.30;;;;;;5073361;28;20039;-48
2022/08/31 20:23:49;;;;;;;2.97;0.90;;;20.30;47.30;;;;;;5075797;28;20357;-50
2022/08/31 20:26:20;;;;;;;2.05;0.98;;;20.30;47.10;;;;;;5075260;28;20070;-48
2022/08/31 20:28:47;;;;;;;2.38;1.23;;;20.30;46.70;;;;;;5075109;28;20029;-48
2022/08/31 20:31:13;;;;;;;2.95;1.23;;;20.30;46.50;;;;;;5074996;28;20365;-48
2022/08/31 20:33:39;;;;;;;1.75;0.88;;;20.20;46.30;;;;;;5075275;28;20135;-49
2022/08/31 20:36:20;;;;;;;1.95;1.77;;;20.30;46.10;;;;;;5074019;28;20472;-48
2022/08/31 20:38:55;;;;;;;3.13;1.02;;;20.20;46.10;;;;;;5057778;28;20021;-48
2022/08/31 20:41:21;;;;;;;3.10;1.05;;;20.20;45.90;;;;;;5075535;28;20086;-50
2022/08/31 20:43:47;;;;;;;1.48;0.90;;;20.20;45.70;;;;;;5075170;28;20025;-48
2022/08/31 20:51:43;;;;;;;3.65;0.80;;;20.10;45.70;;;;;;5074945;28;20039;-49
2022/08/31 20:54:09;;;;;;;1.58;0.70;;;20.00;45.80;;;;;;5074602;28;20044;-50
2022/08/31 20:56:35;;;;;;;1.27;1.05;;;20.00;45.70;;;;;;5074663;28;20032;-48
2022/08/31 20:59:02;;;;;;;1.95;0.93;;;19.90;45.90;;;;;;5074666;28;20027;-48
2022/08/31 21:01:29;;;;;;;4.70;0.93;;;19.90;46.20;;;;;;5074562;28;20384;-47
2022/08/31 21:03:55;;;;;;;5.07;1.08;;;19.80;46.20;;;;;;5073412;28;20024;-48
2022/08/31 21:06:24;;;;;;;1.60;0.93;;;19.70;46.40;;;;;;5074351;28;20078;-47
2022/08/31 21:08:50;;;;;;;1.25;0.85;;;19.70;46.50;;;;;;5074238;28;20217;-47
2022/08/31 21:11:19;;;;;;;2.83;0.90;;;19.60;46.50;;;;;;5074210;28;20490;-47
2022/08/31 21:13:45;;;;;;;5.10;1.30;;;19.50;46.70;;;;;;5073932;28;20024;-48
2022/08/31 21:16:13;;;;;;;1.58;1.20;;;19.50;46.80;;;;;;5074132;28;20119;-47
2022/08/31 21:18:39;;;;;;;8.85;1.40;;;19.50;46.90;;;;;;5073893;28;20070;-51
2022/08/31 21:21:07;;;;;;;3.83;0.90;;;19.40;46.80;;;;;;5074172;28;20024;-46
2022/08/31 21:23:37;;;;;;;1.83;0.70;;;19.40;46.90;;;;;;5074041;28;20024;-47
2022/08/31 21:26:06;;;;;;;7.10;1.35;;;19.40;47.00;;;;;;5073966;28;20021;-48
2022/08/31 21:28:32;;;;;;;2.80;1.58;;;19.30;47.10;;;;;;5073834;28;20024;-47
2022/08/31 21:31:22;;;;;;;3.35;0.80;;;19.30;47.10;;;;;;5073982;28;20070;-46
2022/08/31 21:33:51;;;;;;;0.93;0.68;;;19.30;47.30;;;;;;5073736;28;20036;-48
2022/08/31 21:36:16;;;;;;;2.25;0.95;;;19.20;47.40;;;;;;5074182;28;20044;-53
2022/08/31 21:38:43;;;;;;;2.97;1.60;;;19.10;47.60;;;;;;5073616;28;20028;-52
2022/08/31 21:41:12;;;;;;;2.95;1.30;;;19.10;47.60;;;;;;5073545;28;20083;-49
2022/08/31 21:43:39;;;;;;;5.13;1.77;;;19.00;47.80;;;;;;5056174;28;20031;-50
2022/08/31 21:46:07;;;;;;;3.97;1.98;;;19.00;47.80;;;;;;5072245;28;20098;-50
2022/08/31 21:48:35;;;;;;;5.22;3.08;;;19.00;47.90;;;;;;5073969;28;20021;-48
2022/08/31 21:51:14;;;;;;;8.18;3.92;;;18.90;48.00;;;;;;5073403;28;20104;-48
2022/08/31 21:53:42;;;;;;;7.50;5.28;;;18.80;48.20;;;;;;5073624;28;20059;-47
2022/08/31 21:56:08;;;;;;;9.60;4.55;;;18.80;48.30;;;;;;5072193;28;20056;-51
2022/08/31 21:58:34;;;;;;;11.73;5.03;;;18.80;48.30;;;;;;5073287;28;20032;-48
2022/08/31 22:01:00;;;;;;;12.68;5.13;;;18.80;48.40;;;;;;5073066;28;20074;-47
2022/08/31 22:03:26;;;;;;;8.52;5.88;;;18.80;48.40;;;;;;5073406;28;20419;-48
2022/08/31 22:05:52;;;;;;;14.23;6.35;;;18.80;48.50;;;;;;5073165;28;20025;-47
2022/08/31 22:08:19;;;;;;;8.82;5.90;;;18.80;48.60;;;;;;5072842;28;20048;-46
2022/08/31 22:10:47;;;;;;;13.88;7.78;;;18.80;48.60;;;;;;5073011;28;20472;-47
2022/08/31 22:13:14;;;;;;;16.15;8.88;;;18.80;48.60;;;;;;5073109;28;20033;-47
2022/08/31 22:15:39;;;;;;;12.40;8.77;;;18.80;48.70;;;;;;5072820;28;20491;-48
2022/08/31 22:18:08;;;;;;;18.98;9.45;;;18.80;48.60;;;;;;5072771;28;20111;-48
2022/08/31 22:20:40;;;;;;;12.63;6.18;;;18.80;48.60;;;;;;5072741;28;20037;-48
2022/08/31 22:23:07;;;;;;;8.43;5.03;;;18.80;48.70;;;;;;5073078;28;20024;-47
2022/08/31 22:25:34;;;;;;;6.70;3.13;;;18.80;48.80;;;;;;5072847;28;20385;-47
2022/08/31 22:28:00;;;;;;;6.30;2.72;;;18.80;48.70;;;;;;5072892;28;20566;-49
2022/08/31 22:30:26;;;;;;;3.03;1.52;;;18.80;48.50;;;;;;5072790;28;20453;-47
2022/08/31 22:32:52;;;;;;;1.58;1.20;;;18.80;48.60;;;;;;5070563;28;20028;-46
2022/08/31 22:35:19;;;;;;;2.10;0.93;;;18.80;48.60;;;;;;5070874;28;20032;-47
2022/08/31 22:37:46;;;;;;;3.15;0.93;;;18.80;48.60;;;;;;5071848;28;20028;-46
2022/08/31 22:40:20;;;;;;;3.63;0.80;;;18.80;48.60;;;;;;5071207;28;20048;-50
2022/08/31 22:42:51;;;;;;;2.25;1.17;;;18.80;48.70;;;;;;5071892;28;20380;-47
2022/08/31 22:45:17;;;;;;;4.75;1.30;;;18.80;48.80;;;;;;5071520;28;20027;-48
2022/08/31 22:47:43;;;;;;;3.53;0.77;;;18.70;48.70;;;;;;5071618;28;20017;-49
2022/08/31 22:50:09;;;;;;;2.70;1.20;;;18.70;48.80;;;;;;5071862;28;20195;-47
2022/08/31 22:52:35;;;;;;;3.40;0.95;;;18.70;48.80;;;;;;5071899;28;20564;-47
2022/08/31 22:55:01;;;;;;;1.13;0.90;;;18.50;49.00;;;;;;5070350;28;20052;-48
2022/08/31 22:57:27;;;;;;;1.65;1.20;;;18.50;49.20;;;;;;5071836;28;20033;-48
2022/08/31 22:59:53;;;;;;;2.67;0.88;;;18.40;49.40;;;;;;5071390;28;20051;-47
2022/08/31 23:02:19;;;;;;;2.72;1.30;;;18.40;49.50;;;;;;5071810;28;20020;-46
2022/08/31 23:04:45;;;;;;;3.17;1.67;;;18.30;49.60;;;;;;5071495;28;20464;-46
2022/08/31 23:07:15;;;;;;;5.78;1.20;;;18.30;49.60;;;;;;5071693;28;20020;-47
2022/08/31 23:09:42;;;;;;;8.77;1.17;;;18.30;49.70;;;;;;5071366;28;20108;-47
2022/08/31 23:12:08;;;;;;;2.15;1.23;;;18.30;49.60;;;;;;5071053;28;20039;-48
2022/08/31 23:14:36;;;;;;;2.03;1.10;;;18.40;49.80;;;;;;5071132;28;20035;-47
2022/08/31 23:17:06;;;;;;;1.85;0.90;;;18.40;49.40;;;;;;5070938;28;20063;-48
2022/08/31 23:19:36;;;;;;;1.95;1.20;;;18.40;49.50;;;;;;5071957;28;20037;-48
2022/08/31 23:22:04;;;;;;;2.42;0.90;;;18.40;49.40;;;;;;5071162;28;20746;-48
2022/08/31 23:24:39;;;;;;;4.10;1.00;;;18.40;49.50;;;;;;5071266;28;20127;-48
2022/08/31 23:27:09;;;;;;;2.60;1.15;;;18.40;49.50;;;;;;5073308;28;20032;-50
2022/08/31 23:29:38;;;;;;;3.47;0.83;;;18.30;49.70;;;;;;5075220;28;20043;-47
2022/08/31 23:32:05;;;;;;;2.95;1.38;;;18.30;49.60;;;;;;5075181;28;20494;-48
2022/08/31 23:34:37;;;;;;;2.65;1.55;;;18.30;49.80;;;;;;5075322;28;20105;-51
2022/08/31 23:37:04;;;;;;;2.78;1.40;;;18.20;49.80;;;;;;5076226;28;20036;-49
2022/08/31 23:39:29;;;;;;;5.70;1.67;;;18.20;50.00;;;;;;5073916;28;20139;-48
2022/08/31 23:41:55;;;;;;;4.60;1.23;;;18.20;50.00;;;;;;5076349;28;20444;-46
2022/08/31 23:44:21;;;;;;;2.25;1.25;;;18.20;49.90;;;;;;5075662;28;20042;-48
2022/08/31 23:46:47;;;;;;;5.22;1.52;;;18.20;50.00;;;;;;5074525;28;20445;-47
2022/08/31 23:49:17;;;;;;;3.67;1.33;;;18.20;50.00;;;;;;5075830;28;20384;-47
2022/08/31 23:51:43;;;;;;;2.72;1.30;;;18.20;50.10;;;;;;5074616;28;20384;-47
2022/08/31 23:54:12;;;;;;;1.45;0.90;;;18.20;50.00;;;;;;5075781;28;20029;-46
2022/08/31 23:56:41;;;;;;;2.30;1.40;;;18.20;50.10;;;;;;5076086;28;20021;-47
2022/08/31 23:59:10;;;;;;;1.08;0.70;;;18.20;50.00;;;;;;5075784;28;20017;-46
